Accueil
METAR-TAF:

METAR-TAF

Aéroports :

Base aérienne de Beauvechain

Beauvechain, Belgique

latitude: 50-45N, longitude: 004-46E, altitude: 105 m

Observation

Le bulletin a été fait il y a 20 minutes, à 22:55 UTC
Vent 8 kt de sud
Température 5°C
Humidité 87%
Pression 993 hPa
Visibilité 10 km ou plus

METAR: EBBE 232255Z AUTO 18008KT 9999 FEW027/// SCT031/// BKN038/// 05/03 Q0993 BLU

Heure: 00:15 (23:15 UTC)

Prévision

Le bulletin a été fait il y a 7 heures et 34 minutes, à 15:41 UTC
Prévision valable du 23 à 19 UTC au 24 à 07 UTC
Vent 10 kt de sud/sud-ouest
Visibilité 10 km ou plus
Quelques nuages à une hauteur de 3000 ft
Evoluant progressivement
du 24 à 01 UTC au 24 à 03 UTC
Nuages épars à une hauteur de 1500 ft
Evoluant progressivement
du 24 à 03 UTC au 24 à 05 UTC
Nuages fragmentés à une hauteur de 1000 ft

TAF: EBBE 231541Z 2319/2407 21010KT 9999 FEW030 BECMG 2401/2403 SCT015 BECMG 2403/2405 BKN010

Observations et prévisions météorologiques de plus de 4000 aéroports (messages METAR et TAF).

Les stations disponibles sont représentées par des disques jaunes et rouges sur la carte.

Passer la souris dessus pour voir le nom de la station.

Cliquer dessus pour voir les observations et prévisions météorologiques.

Pour changer de carte: cliquez sur les boutons verts avec une croix noire pour zoomer, sur le bouton vert avec un tiret pour effectuer un zoom arrière, ou sur les flèches vertes pour les cartes adjacentes.


METAR-TAF: